Time,TemperatureF,DewpointF,PressureIn,WindDirection,WindDirectionDegrees,WindSpeedMPH,WindSpeedGustMPH,Humidity,HourlyPrecipIn,Conditions,Clouds,dailyrainin,SoftwareType,DateUTC
2013-03-22 00:02:00,45.0,28.0,29.99,SSW,208,0.0,0.0,52,0.00,,,0.00,,2013-03-22 05:02:00,
2013-03-22 00:12:00,45.0,28.0,29.99,SSW,208,0.0,0.0,52,0.00,,,0.00,,2013-03-22 05:12:00,
2013-03-22 00:22:00,44.0,28.0,29.99,South,190,0.0,4.0,52,0.00,,,0.00,,2013-03-22 05:22:00,
2013-03-22 00:32:00,42.0,33.0,30.01,South,190,0.0,0.0,69,0.01,,,0.00,,2013-03-22 05:32:00,
2013-03-22 00:42:00,42.0,33.0,30.01,South,190,0.0,0.0,69,0.01,,,0.00,,2013-03-22 05:42:00,
2013-03-22 00:52:00,41.0,32.0,29.99,South,190,0.0,0.0,71,0.02,,,0.00,,2013-03-22 05:52:00,
2013-03-22 01:02:00,40.0,34.0,29.99,SSW,210,2.0,12.0,79,0.03,,,0.00,,2013-03-22 06:02:00,
2013-03-22 01:12:00,40.0,34.0,29.99,SSW,210,2.0,12.0,79,0.03,,,0.00,,2013-03-22 06:12:00,
2013-03-22 01:22:00,40.0,34.0,29.98,SSW,203,0.0,5.0,79,0.03,,,0.00,,2013-03-22 06:22:00,
2013-03-22 01:32:00,40.0,34.0,29.98,SSW,201,0.0,3.0,78,0.02,,,0.00,,2013-03-22 06:32:00,
2013-03-22 01:42:00,40.0,34.0,29.98,SSW,201,0.0,3.0,78,0.02,,,0.00,,2013-03-22 06:42:00,
2013-03-22 01:52:00,40.0,34.0,30.00,SSW,201,0.0,0.0,80,0.01,,,0.00,,2013-03-22 06:52:00,
2013-03-22 02:02:00,40.0,34.0,29.99,SSW,201,0.0,0.0,79,0.00,,,0.00,,2013-03-22 07:02:00,
2013-03-22 02:12:00,40.0,34.0,29.99,SSW,201,0.0,0.0,79,0.00,,,0.00,,2013-03-22 07:12:00,
2013-03-22 02:22:00,40.0,35.0,29.98,SW,215,0.0,2.0,82,0.00,,,0.00,,2013-03-22 07:22:00,
2013-03-22 02:32:00,40.0,36.0,29.97,SSW,211,3.0,5.0,84,0.00,,,0.00,,2013-03-22 07:32:00,
2013-03-22 02:42:00,40.0,36.0,29.97,SSW,211,3.0,5.0,84,0.00,,,0.00,,2013-03-22 07:42:00,
2013-03-22 02:52:00,40.0,35.0,29.97,WSW,252,5.0,8.0,83,0.00,,,0.00,,2013-03-22 07:52:00,
2013-03-22 03:03:00,39.0,35.0,29.96,SW,236,3.0,10.0,84,0.00,,,0.00,,2013-03-22 08:03:00,
2013-03-22 03:12:00,39.0,35.0,29.96,SW,236,3.0,10.0,84,0.00,,,0.00,,2013-03-22 08:12:00,
2013-03-22 03:22:00,39.0,35.0,29.97,SW,215,0.0,8.0,84,0.00,,,0.00,,2013-03-22 08:22:00,
2013-03-22 03:32:00,39.0,34.0,29.98,SW,215,0.0,4.0,83,0.00,,,0.00,,2013-03-22 08:32:00,
2013-03-22 03:42:00,39.0,34.0,29.98,SW,215,0.0,4.0,83,0.00,,,0.00,,2013-03-22 08:42:00,
2013-03-22 03:52:00,39.0,35.0,29.98,WSW,243,0.0,5.0,85,0.00,,,0.00,,2013-03-22 08:52:00,
2013-03-22 04:02:00,39.0,35.0,29.97,WSW,239,4.0,5.0,84,0.00,,,0.00,,2013-03-22 09:02:00,
2013-03-22 04:12:00,39.0,35.0,29.97,WSW,239,4.0,5.0,84,0.00,,,0.00,,2013-03-22 09:12:00,
2013-03-22 04:22:00,39.0,35.0,29.97,SW,214,0.0,5.0,84,0.00,,,0.00,,2013-03-22 09:22:00,
2013-03-22 04:32:00,39.0,35.0,29.97,SW,236,0.0,4.0,85,0.00,,,0.00,,2013-03-22 09:32:00,
2013-03-22 04:42:00,39.0,35.0,29.97,SW,236,0.0,4.0,85,0.00,,,0.00,,2013-03-22 09:42:00,
2013-03-22 04:53:00,39.0,35.0,29.99,SW,236,0.0,0.0,84,0.00,,,0.00,,2013-03-22 09:53:00,
2013-03-22 05:03:00,39.0,35.0,29.97,SSW,212,0.0,5.0,87,0.00,,,0.00,,2013-03-22 10:03:00,
2013-03-22 05:12:00,39.0,35.0,29.97,SSW,212,0.0,5.0,87,0.00,,,0.00,,2013-03-22 10:12:00,
2013-03-22 05:22:00,39.0,35.0,29.97,SW,235,2.0,4.0,86,0.00,,,0.00,,2013-03-22 10:22:00,
2013-03-22 05:32:00,39.0,35.0,29.98,WSW,246,0.0,1.0,87,0.00,,,0.00,,2013-03-22 10:32:00,
2013-03-22 05:42:00,39.0,35.0,29.98,WSW,246,0.0,1.0,87,0.00,,,0.00,,2013-03-22 10:42:00,
2013-03-22 05:52:00,39.0,35.0,29.98,SW,219,0.0,2.0,87,0.00,,,0.00,,2013-03-22 10:52:00,
2013-03-22 06:03:00,39.0,36.0,29.97,WSW,245,2.0,5.0,88,0.00,,,0.00,,2013-03-22 11:03:00,
2013-03-22 06:12:00,39.0,36.0,29.97,WSW,245,2.0,5.0,88,0.00,,,0.00,,2013-03-22 11:12:00,
2013-03-22 06:22:00,39.0,35.0,29.97,SW,222,0.0,5.0,87,0.00,,,0.00,,2013-03-22 11:22:00,
2013-03-22 06:33:00,39.0,36.0,29.96,SW,233,3.0,5.0,88,0.00,,,0.00,,2013-03-22 11:33:00,
2013-03-22 06:42:00,39.0,36.0,29.96,SW,233,3.0,5.0,88,0.00,,,0.00,,2013-03-22 11:42:00,
2013-03-22 06:52:00,39.0,36.0,29.96,SW,218,1.0,6.0,88,0.00,,,0.00,,2013-03-22 11:52:00,
2013-03-22 07:02:00,39.0,35.0,29.98,SSW,211,1.0,3.0,87,0.00,,,0.00,,2013-03-22 12:02:00,
2013-03-22 07:12:00,39.0,35.0,30.00,WSW,238,1.0,3.0,87,0.00,,,0.00,,2013-03-22 12:12:00,
2013-03-22 07:22:00,39.0,35.0,30.00,WSW,238,1.0,3.0,87,0.00,,,0.00,,2013-03-22 12:22:00,
2013-03-22 07:32:00,39.0,35.0,30.01,SW,222,1.0,5.0,87,0.00,,,0.00,,2013-03-22 12:32:00,
2013-03-22 07:42:00,39.0,35.0,30.01,SW,222,1.0,5.0,87,0.00,,,0.00,,2013-03-22 12:42:00,
2013-03-22 07:52:00,39.0,36.0,30.00,WSW,248,3.0,6.0,88,0.00,,,0.00,,2013-03-22 12:52:00,
2013-03-22 08:02:00,40.0,37.0,30.01,WSW,246,3.0,4.0,88,0.00,,,0.00,,2013-03-22 13:02:00,
2013-03-22 08:12:00,40.0,37.0,30.01,WSW,246,3.0,4.0,88,0.00,,,0.00,,2013-03-22 13:12:00,
2013-03-22 08:22:00,40.0,37.0,29.99,WSW,238,4.0,9.0,89,0.00,,,0.00,,2013-03-22 13:22:00,
2013-03-22 08:32:00,40.0,37.0,30.00,West,259,6.0,9.0,89,0.00,,,0.00,,2013-03-22 13:32:00,
2013-03-22 08:42:00,40.0,37.0,30.00,West,259,6.0,9.0,89,0.00,,,0.00,,2013-03-22 13:42:00,
2013-03-22 08:52:00,40.0,38.0,30.01,SW,233,2.0,9.0,92,0.00,,,0.00,,2013-03-22 13:52:00,
2013-03-22 09:02:00,39.0,38.0,30.01,SW,236,5.0,8.0,97,0.02,,,0.00,,2013-03-22 14:02:00,
2013-03-22 09:12:00,39.0,38.0,30.01,SW,236,5.0,8.0,97,0.02,,,0.00,,2013-03-22 14:12:00,
2013-03-22 09:22:00,39.0,38.0,30.01,SW,225,1.0,8.0,97,0.02,,,0.00,,2013-03-22 14:22:00,
2013-03-22 09:32:00,39.0,38.0,30.02,SW,226,2.0,7.0,98,0.02,,,0.00,,2013-03-22 14:32:00,
2013-03-22 09:42:00,39.0,38.0,30.02,SW,226,2.0,7.0,98,0.02,,,0.00,,2013-03-22 14:42:00,
2013-03-22 09:52:00,39.0,39.0,30.03,SW,233,2.0,4.0,99,0.02,,,0.00,,2013-03-22 14:52:00,
2013-03-22 10:03:00,39.0,39.0,30.02,WSW,238,2.0,7.0,100,0.01,,,0.00,,2013-03-22 15:03:00,
2013-03-22 10:12:00,39.0,39.0,30.02,WSW,238,2.0,7.0,100,0.01,,,0.00,,2013-03-22 15:12:00,
2013-03-22 10:22:00,39.0,39.0,30.02,WSW,239,3.0,7.0,100,0.01,,,0.00,,2013-03-22 15:22:00,
2013-03-22 10:32:00,40.0,40.0,30.02,SW,221,0.0,5.0,100,0.01,,,0.00,,2013-03-22 15:32:00,
2013-03-22 10:42:00,40.0,40.0,30.02,SW,221,0.0,5.0,100,0.01,,,0.00,,2013-03-22 15:42:00,
2013-03-22 10:52:00,40.0,40.0,30.03,SW,221,0.0,0.0,100,0.02,,,0.00,,2013-03-22 15:52:00,
2013-03-22 11:02:00,40.0,40.0,30.03,WSW,246,2.0,4.0,100,0.02,,,0.00,,2013-03-22 16:02:00,
2013-03-22 11:13:00,40.0,40.0,30.03,WSW,240,2.0,5.0,100,0.03,,,0.00,,2013-03-22 16:13:00,
2013-03-22 11:22:00,40.0,40.0,30.03,WSW,240,2.0,5.0,100,0.03,,,0.00,,2013-03-22 16:22:00,
2013-03-22 11:32:00,40.0,40.0,30.03,WSW,245,2.0,4.0,100,0.05,,,0.00,,2013-03-22 16:32:00,
2013-03-22 11:42:00,40.0,40.0,30.03,WSW,239,2.0,5.0,100,0.04,,,0.00,,2013-03-22 16:42:00,
2013-03-22 11:52:00,40.0,40.0,30.03,WSW,239,2.0,5.0,100,0.04,,,0.00,,2013-03-22 16:52:00,
2013-03-22 12:03:00,40.0,40.0,30.01,WSW,249,4.0,8.0,100,0.05,,,0.00,,2013-03-22 17:03:00,
2013-03-22 12:12:00,40.0,40.0,30.01,WSW,252,1.0,4.0,100,0.05,,,0.00,,2013-03-22 17:12:00,
2013-03-22 12:23:00,40.0,40.0,30.01,WSW,252,1.0,4.0,100,0.05,,,0.00,,2013-03-22 17:23:00,
2013-03-22 12:32:00,41.0,41.0,30.01,West,266,0.0,5.0,100,0.04,,,0.00,,2013-03-22 17:32:00,
2013-03-22 12:42:00,41.0,41.0,30.01,West,266,0.0,5.0,100,0.04,,,0.00,,2013-03-22 17:42:00,
2013-03-22 12:52:00,41.0,41.0,30.01,SW,232,0.0,4.0,100,0.05,,,0.00,,2013-03-22 17:52:00,
2013-03-22 13:02:00,41.0,41.0,30.00,West,277,2.0,6.0,100,0.04,,,0.00,,2013-03-22 18:02:00,
2013-03-22 13:12:00,41.0,41.0,30.00,West,277,2.0,6.0,100,0.04,,,0.00,,2013-03-22 18:12:00,
2013-03-22 13:22:00,41.0,41.0,30.00,WSW,248,3.0,4.0,100,0.03,,,0.00,,2013-03-22 18:22:00,
2013-03-22 13:33:00,42.0,42.0,29.98,WNW,291,2.0,5.0,100,0.02,,,0.00,,2013-03-22 18:33:00,
2013-03-22 13:42:00,42.0,42.0,29.98,WNW,291,2.0,5.0,100,0.02,,,0.00,,2013-03-22 18:42:00,
2013-03-22 13:52:00,42.0,42.0,29.98,SW,232,1.0,6.0,100,0.01,,,0.00,,2013-03-22 18:52:00,
2013-03-22 14:02:00,43.0,43.0,29.98,West,263,2.0,7.0,100,0.00,,,0.00,,2013-03-22 19:02:00,
2013-03-22 14:12:00,44.0,44.0,29.97,WSW,257,3.0,5.0,100,0.00,,,0.00,,2013-03-22 19:12:00,
2013-03-22 14:22:00,44.0,44.0,29.97,WSW,257,3.0,5.0,100,0.00,,,0.00,,2013-03-22 19:22:00,
2013-03-22 14:32:00,45.0,44.0,29.97,West,267,2.0,7.0,98,0.00,,,0.00,,2013-03-22 19:32:00,
2013-03-22 14:42:00,45.0,44.0,29.97,West,267,2.0,7.0,98,0.00,,,0.00,,2013-03-22 19:42:00,
2013-03-22 14:52:00,46.0,45.0,29.96,WNW,284,3.0,7.0,95,0.00,,,0.00,,2013-03-22 19:52:00,
2013-03-22 15:02:00,47.0,43.0,29.96,WSW,245,1.0,8.0,87,0.00,,,0.00,,2013-03-22 20:02:00,
2013-03-22 15:12:00,48.0,44.0,29.96,WNW,287,5.0,8.0,85,0.00,,,0.00,,2013-03-22 20:12:00,
2013-03-22 15:22:00,48.0,44.0,29.96,WNW,287,5.0,8.0,85,0.00,,,0.00,,2013-03-22 20:22:00,
2013-03-22 15:32:00,49.0,44.0,29.96,WSW,239,1.0,5.0,83,0.00,,,0.00,,2013-03-22 20:32:00,
2013-03-22 15:42:00,49.0,44.0,29.96,WSW,239,1.0,5.0,83,0.00,,,0.00,,2013-03-22 20:42:00,
2013-03-22 15:52:00,49.0,43.0,29.96,North,10,5.0,8.0,81,0.00,,,0.00,,2013-03-22 20:52:00,
2013-03-22 16:03:00,49.0,44.0,29.94,NNE,24,1.0,9.0,82,0.00,,,0.00,,2013-03-22 21:03:00,
2013-03-22 16:12:00,50.0,44.0,29.94,NE,38,3.0,7.0,80,0.00,,,0.00,,2013-03-22 21:12:00,
2013-03-22 16:22:00,50.0,44.0,29.94,NE,38,3.0,7.0,80,0.00,,,0.00,,2013-03-22 21:22:00,
2013-03-22 16:32:00,49.0,43.0,29.95,SW,219,3.0,8.0,81,0.00,,,0.00,,2013-03-22 21:32:00,
2013-03-22 16:42:00,49.0,43.0,29.95,SW,219,3.0,8.0,81,0.00,,,0.00,,2013-03-22 21:42:00,
2013-03-22 16:52:00,49.0,44.0,29.95,SW,214,2.0,5.0,82,0.00,,,0.00,,2013-03-22 21:52:00,
2013-03-22 17:03:00,49.0,44.0,29.95,SW,222,5.0,8.0,83,0.00,,,0.00,,2013-03-22 22:03:00,
2013-03-22 17:12:00,49.0,44.0,29.95,SW,222,5.0,8.0,83,0.00,,,0.00,,2013-03-22 22:12:00,
2013-03-22 17:23:00,48.0,43.0,29.94,SW,225,2.0,9.0,84,0.00,,,0.00,,2013-03-22 22:23:00,
2013-03-22 17:32:00,48.0,43.0,29.93,SW,221,2.0,6.0,84,0.00,,,0.00,,2013-03-22 22:32:00,
2013-03-22 17:42:00,48.0,43.0,29.93,SW,221,2.0,6.0,84,0.00,,,0.00,,2013-03-22 22:42:00,
2013-03-22 17:52:00,48.0,44.0,29.93,SSW,205,2.0,5.0,86,0.01,,,0.00,,2013-03-22 22:52:00,
2013-03-22 18:02:00,48.0,45.0,29.95,SSW,211,0.0,3.0,91,0.01,,,0.00,,2013-03-22 23:02:00,
2013-03-22 18:12:00,48.0,45.0,29.95,SSW,211,0.0,3.0,91,0.01,,,0.00,,2013-03-22 23:12:00,
2013-03-22 18:22:00,47.0,45.0,29.95,SW,217,0.0,3.0,92,0.01,,,0.00,,2013-03-22 23:22:00,
2013-03-22 18:32:00,47.0,45.0,29.95,SW,215,0.0,4.0,93,0.01,,,0.00,,2013-03-22 23:32:00,
2013-03-22 18:42:00,47.0,45.0,29.95,SW,215,0.0,4.0,93,0.01,,,0.00,,2013-03-22 23:42:00,
2013-03-22 18:52:00,47.0,45.0,29.95,SW,225,2.0,5.0,93,0.00,,,0.00,,2013-03-22 23:52:00,
2013-03-22 19:02:00,47.0,45.0,29.95,SW,226,2.0,5.0,92,0.00,,,0.00,,2013-03-23 00:02:00,
2013-03-22 19:12:00,47.0,45.0,29.95,SW,226,2.0,5.0,92,0.00,,,0.00,,2013-03-23 00:12:00,
2013-03-22 19:23:00,47.0,45.0,29.95,SW,222,2.0,5.0,91,0.00,,,0.00,,2013-03-23 00:23:00,
2013-03-22 19:32:00,47.0,44.0,29.95,SW,214,2.0,7.0,90,0.00,,,0.00,,2013-03-23 00:32:00,
2013-03-22 19:42:00,47.0,44.0,29.95,SW,226,2.0,5.0,89,0.00,,,0.00,,2013-03-23 00:42:00,
2013-03-22 19:52:00,47.0,44.0,29.95,SW,226,2.0,5.0,89,0.00,,,0.00,,2013-03-23 00:52:00,
2013-03-22 20:03:00,47.0,45.0,29.95,SW,231,3.0,6.0,93,0.01,,,0.00,,2013-03-23 01:03:00,
2013-03-22 20:12:00,47.0,45.0,29.95,SW,231,3.0,6.0,93,0.01,,,0.00,,2013-03-23 01:12:00,
2013-03-22 20:22:00,47.0,46.0,29.96,SW,222,0.0,3.0,95,0.02,,,0.00,,2013-03-23 01:22:00,
2013-03-22 20:32:00,46.0,45.0,29.95,SW,222,2.0,4.0,98,0.02,,,0.00,,2013-03-23 01:32:00,
2013-03-22 20:42:00,46.0,45.0,29.95,SW,222,2.0,4.0,98,0.02,,,0.00,,2013-03-23 01:42:00,
2013-03-22 20:52:00,46.0,46.0,29.96,SW,224,1.0,3.0,99,0.02,,,0.00,,2013-03-23 01:52:00,
2013-03-22 21:02:00,46.0,46.0,29.95,SW,228,1.0,3.0,99,0.01,,,0.00,,2013-03-23 02:02:00,
2013-03-22 21:12:00,46.0,46.0,29.95,SW,228,1.0,3.0,99,0.01,,,0.00,,2013-03-23 02:12:00,
2013-03-22 21:22:00,46.0,46.0,29.96,SW,222,3.0,4.0,99,0.00,,,0.00,,2013-03-23 02:22:00,
2013-03-22 21:32:00,46.0,46.0,29.96,SSW,208,1.0,4.0,99,0.00,,,0.00,,2013-03-23 02:32:00,
2013-03-22 21:42:00,46.0,46.0,29.96,SSW,208,1.0,4.0,99,0.00,,,0.00,,2013-03-23 02:42:00,
2013-03-22 21:52:00,47.0,47.0,29.96,SSW,207,0.0,4.0,100,0.00,,,0.00,,2013-03-23 02:52:00,
2013-03-22 22:02:00,47.0,47.0,29.96,SW,219,1.0,4.0,99,0.00,,,0.00,,2013-03-23 03:02:00,
2013-03-22 22:12:00,47.0,47.0,29.96,SW,219,1.0,4.0,99,0.00,,,0.00,,2013-03-23 03:12:00,
2013-03-22 22:22:00,47.0,47.0,29.96,SW,228,2.0,4.0,99,0.00,,,0.00,,2013-03-23 03:22:00,
2013-03-22 22:33:00,47.0,46.0,29.96,SW,231,2.0,7.0,96,0.00,,,0.00,,2013-03-23 03:33:00,
2013-03-22 22:43:00,47.0,46.0,29.96,SW,231,2.0,7.0,96,0.00,,,0.00,,2013-03-23 03:43:00,
2013-03-22 22:53:00,47.0,46.0,29.95,SSW,204,1.0,4.0,96,0.00,,,0.00,,2013-03-23 03:53:00,
2013-03-22 23:02:00,48.0,46.0,29.95,SW,225,1.0,4.0,94,0.00,,,0.00,,2013-03-23 04:02:00,
2013-03-22 23:12:00,48.0,46.0,29.95,SW,225,1.0,4.0,94,0.00,,,0.00,,2013-03-23 04:12:00,
2013-03-22 23:23:00,48.0,46.0,29.95,SW,232,2.0,5.0,93,0.00,,,0.00,,2013-03-23 04:23:00,
2013-03-22 23:32:00,48.0,45.0,29.94,SW,224,3.0,8.0,90,0.00,,,0.00,,2013-03-23 04:32:00,
2013-03-22 23:43:00,48.0,45.0,29.94,SW,224,3.0,8.0,90,0.00,,,0.00,,2013-03-23 04:43:00,
2013-03-22 23:53:00,48.0,45.0,29.95,SW,232,1.0,5.0,90,0.00,,,0.00,,2013-03-23 04:53:00,